sensor_id;sensor_type;location;lat;lon;timestamp;P1;durP1;ratioP1;P2;durP2;ratioP2
53339;SDS011;46212;50.258;19.062;2023-02-13T00:00:59;90.93;;;43.60;;
53339;SDS011;46212;50.258;19.062;2023-02-13T00:03:24;86.95;;;39.58;;
53339;SDS011;46212;50.258;19.062;2023-02-13T00:05:50;80.43;;;37.97;;
53339;SDS011;46212;50.258;19.062;2023-02-13T00:08:15;92.28;;;40.13;;
53339;SDS011;46212;50.258;19.062;2023-02-13T00:10:40;80.07;;;36.88;;
53339;SDS011;46212;50.258;19.062;2023-02-13T00:13:06;83.93;;;34.53;;
53339;SDS011;46212;50.258;19.062;2023-02-13T00:15:31;77.47;;;37.70;;
53339;SDS011;46212;50.258;19.062;2023-02-13T00:17:57;72.22;;;35.50;;
53339;SDS011;46212;50.258;19.062;2023-02-13T00:20:23;90.93;;;40.42;;
53339;SDS011;46212;50.258;19.062;2023-02-13T00:22:48;82.13;;;36.33;;
53339;SDS011;46212;50.258;19.062;2023-02-13T00:25:13;76.97;;;32.35;;
53339;SDS011;46212;50.258;19.062;2023-02-13T00:27:39;82.53;;;35.78;;
53339;SDS011;46212;50.258;19.062;2023-02-13T00:30:04;86.68;;;35.97;;
53339;SDS011;46212;50.258;19.062;2023-02-13T00:32:31;100.38;;;41.95;;
53339;SDS011;46212;50.258;19.062;2023-02-13T00:34:56;94.15;;;39.45;;
53339;SDS011;46212;50.258;19.062;2023-02-13T00:37:22;95.68;;;40.92;;
53339;SDS011;46212;50.258;19.062;2023-02-13T00:39:48;87.63;;;39.15;;
53339;SDS011;46212;50.258;19.062;2023-02-13T00:42:13;77.97;;;35.08;;
53339;SDS011;46212;50.258;19.062;2023-02-13T00:44:39;86.70;;;35.30;;
53339;SDS011;46212;50.258;19.062;2023-02-13T00:47:04;80.13;;;35.67;;
53339;SDS011;46212;50.258;19.062;2023-02-13T00:49:29;84.03;;;35.92;;
53339;SDS011;46212;50.258;19.062;2023-02-13T00:51:55;89.57;;;36.90;;
53339;SDS011;46212;50.258;19.062;2023-02-13T00:54:20;84.90;;;34.00;;
53339;SDS011;46212;50.258;19.062;2023-02-13T00:56:46;89.68;;;39.20;;
53339;SDS011;46212;50.258;19.062;2023-02-13T00:59:11;99.70;;;41.40;;
53339;SDS011;46212;50.258;19.062;2023-02-13T01:01:36;81.65;;;36.47;;
53339;SDS011;46212;50.258;19.062;2023-02-13T01:04:02;77.88;;;34.67;;
53339;SDS011;46212;50.258;19.062;2023-02-13T01:06:27;84.85;;;39.13;;
53339;SDS011;46212;50.258;19.062;2023-02-13T01:08:53;81.68;;;35.53;;
53339;SDS011;46212;50.258;19.062;2023-02-13T01:11:18;77.78;;;35.05;;
53339;SDS011;46212;50.258;19.062;2023-02-13T01:13:44;84.25;;;36.22;;
53339;SDS011;46212;50.258;19.062;2023-02-13T01:16:09;91.15;;;38.20;;
53339;SDS011;46212;50.258;19.062;2023-02-13T01:18:35;90.22;;;35.35;;
53339;SDS011;46212;50.258;19.062;2023-02-13T01:21:03;82.15;;;39.20;;
53339;SDS011;46212;50.258;19.062;2023-02-13T01:23:32;81.47;;;38.63;;
53339;SDS011;46212;50.258;19.062;2023-02-13T01:25:59;90.22;;;38.72;;
53339;SDS011;46212;50.258;19.062;2023-02-13T01:28:25;82.97;;;38.05;;
53339;SDS011;46212;50.258;19.062;2023-02-13T01:30:56;87.28;;;38.53;;
53339;SDS011;46212;50.258;19.062;2023-02-13T01:33:23;82.28;;;37.70;;
53339;SDS011;46212;50.258;19.062;2023-02-13T01:35:50;90.72;;;35.90;;
53339;SDS011;46212;50.258;19.062;2023-02-13T01:38:16;84.28;;;37.17;;
53339;SDS011;46212;50.258;19.062;2023-02-13T01:40:48;95.75;;;38.72;;
53339;SDS011;46212;50.258;19.062;2023-02-13T01:43:16;78.53;;;35.05;;
53339;SDS011;46212;50.258;19.062;2023-02-13T01:45:42;81.13;;;38.63;;
53339;SDS011;46212;50.258;19.062;2023-02-13T01:48:17;78.28;;;34.47;;
53339;SDS011;46212;50.258;19.062;2023-02-13T01:50:56;90.22;;;38.75;;
53339;SDS011;46212;50.258;19.062;2023-02-13T01:53:24;84.95;;;41.03;;
53339;SDS011;46212;50.258;19.062;2023-02-13T01:55:55;94.95;;;39.95;;
53339;SDS011;46212;50.258;19.062;2023-02-13T01:58:31;90.95;;;36.13;;
53339;SDS011;46212;50.258;19.062;2023-02-13T02:00:59;76.20;;;34.72;;
53339;SDS011;46212;50.258;19.062;2023-02-13T02:05:54;80.88;;;33.17;;
53339;SDS011;46212;50.258;19.062;2023-02-13T02:08:22;79.93;;;32.47;;
53339;SDS011;46212;50.258;19.062;2023-02-13T02:10:48;85.72;;;35.22;;
53339;SDS011;46212;50.258;19.062;2023-02-13T02:13:18;92.35;;;35.67;;
53339;SDS011;46212;50.258;19.062;2023-02-13T02:15:45;72.80;;;30.05;;
53339;SDS011;46212;50.258;19.062;2023-02-13T02:18:17;86.28;;;37.00;;
53339;SDS011;46212;50.258;19.062;2023-02-13T02:35:37;94.85;;;39.65;;
53339;SDS011;46212;50.258;19.062;2023-02-13T02:41:09;79.10;;;36.10;;
53339;SDS011;46212;50.258;19.062;2023-02-13T02:46:36;116.82;;;44.63;;
53339;SDS011;46212;50.258;19.062;2023-02-13T02:49:27;77.82;;;31.63;;
53339;SDS011;46212;50.258;19.062;2023-02-13T02:52:19;87.70;;;34.88;;
53339;SDS011;46212;50.258;19.062;2023-02-13T02:54:52;88.10;;;34.67;;
53339;SDS011;46212;50.258;19.062;2023-02-13T02:57:31;73.82;;;33.80;;
53339;SDS011;46212;50.258;19.062;2023-02-13T03:00:20;84.63;;;32.00;;
53339;SDS011;46212;50.258;19.062;2023-02-13T03:03:10;66.75;;;26.77;;
53339;SDS011;46212;50.258;19.062;2023-02-13T03:06:01;79.03;;;29.83;;
53339;SDS011;46212;50.258;19.062;2023-02-13T03:08:34;68.55;;;30.30;;
53339;SDS011;46212;50.258;19.062;2023-02-13T03:11:20;73.30;;;29.88;;
53339;SDS011;46212;50.258;19.062;2023-02-13T03:14:04;73.45;;;30.42;;
53339;SDS011;46212;50.258;19.062;2023-02-13T03:16:33;66.57;;;25.42;;
53339;SDS011;46212;50.258;19.062;2023-02-13T03:19:30;91.75;;;30.75;;
53339;SDS011;46212;50.258;19.062;2023-02-13T03:22:24;73.40;;;30.00;;
53339;SDS011;46212;50.258;19.062;2023-02-13T03:25:17;74.50;;;31.25;;
53339;SDS011;46212;50.258;19.062;2023-02-13T03:28:19;79.45;;;29.48;;
53339;SDS011;46212;50.258;19.062;2023-02-13T03:33:43;85.15;;;30.77;;
53339;SDS011;46212;50.258;19.062;2023-02-13T03:41:55;82.50;;;35.05;;
53339;SDS011;46212;50.258;19.062;2023-02-13T03:44:42;100.15;;;33.25;;
53339;SDS011;46212;50.258;19.062;2023-02-13T03:47:32;74.07;;;31.33;;
53339;SDS011;46212;50.258;19.062;2023-02-13T03:49:58;67.70;;;31.75;;
53339;SDS011;46212;50.258;19.062;2023-02-13T03:55:03;76.00;;;27.65;;
53339;SDS011;46212;50.258;19.062;2023-02-13T03:57:52;80.55;;;30.08;;
53339;SDS011;46212;50.258;19.062;2023-02-13T04:00:41;70.70;;;25.98;;
53339;SDS011;46212;50.258;19.062;2023-02-13T04:03:19;86.75;;;31.05;;
53339;SDS011;46212;50.258;19.062;2023-02-13T04:05:53;70.00;;;27.73;;
53339;SDS011;46212;50.258;19.062;2023-02-13T04:08:22;80.00;;;27.17;;
53339;SDS011;46212;50.258;19.062;2023-02-13T04:10:49;64.47;;;24.85;;
53339;SDS011;46212;50.258;19.062;2023-02-13T04:13:34;80.88;;;30.05;;
53339;SDS011;46212;50.258;19.062;2023-02-13T04:16:10;64.50;;;26.13;;
53339;SDS011;46212;50.258;19.062;2023-02-13T04:18:42;77.70;;;28.67;;
53339;SDS011;46212;50.258;19.062;2023-02-13T04:21:08;89.85;;;29.92;;
53339;SDS011;46212;50.258;19.062;2023-02-13T04:23:33;71.05;;;26.35;;
53339;SDS011;46212;50.258;19.062;2023-02-13T04:26:00;83.82;;;29.33;;
53339;SDS011;46212;50.258;19.062;2023-02-13T04:28:29;81.13;;;28.15;;
53339;SDS011;46212;50.258;19.062;2023-02-13T04:30:54;77.63;;;30.42;;
53339;SDS011;46212;50.258;19.062;2023-02-13T04:33:21;84.95;;;29.65;;
53339;SDS011;46212;50.258;19.062;2023-02-13T04:35:47;75.45;;;27.05;;
53339;SDS011;46212;50.258;19.062;2023-02-13T04:38:12;75.22;;;26.40;;
53339;SDS011;46212;50.258;19.062;2023-02-13T04:40:37;85.93;;;29.80;;
53339;SDS011;46212;50.258;19.062;2023-02-13T04:43:03;72.07;;;27.30;;
53339;SDS011;46212;50.258;19.062;2023-02-13T04:45:28;81.68;;;28.90;;
53339;SDS011;46212;50.258;19.062;2023-02-13T04:47:54;80.85;;;27.92;;
53339;SDS011;46212;50.258;19.062;2023-02-13T04:50:21;61.38;;;25.92;;
53339;SDS011;46212;50.258;19.062;2023-02-13T04:52:49;86.53;;;28.83;;
53339;SDS011;46212;50.258;19.062;2023-02-13T04:55:18;86.15;;;29.10;;
53339;SDS011;46212;50.258;19.062;2023-02-13T04:57:43;95.75;;;34.47;;
53339;SDS011;46212;50.258;19.062;2023-02-13T05:00:09;61.45;;;23.27;;
53339;SDS011;46212;50.258;19.062;2023-02-13T05:02:35;80.95;;;27.67;;
53339;SDS011;46212;50.258;19.062;2023-02-13T05:05:01;60.03;;;25.45;;
53339;SDS011;46212;50.258;19.062;2023-02-13T05:07:26;69.65;;;24.40;;
53339;SDS011;46212;50.258;19.062;2023-02-13T05:09:52;64.95;;;25.60;;
53339;SDS011;46212;50.258;19.062;2023-02-13T05:12:17;65.47;;;23.15;;
53339;SDS011;46212;50.258;19.062;2023-02-13T05:14:43;56.03;;;22.85;;
53339;SDS011;46212;50.258;19.062;2023-02-13T05:17:08;56.53;;;21.13;;
53339;SDS011;46212;50.258;19.062;2023-02-13T05:19:33;66.72;;;22.08;;
53339;SDS011;46212;50.258;19.062;2023-02-13T05:21:59;67.18;;;23.05;;
53339;SDS011;46212;50.258;19.062;2023-02-13T05:24:43;68.32;;;27.30;;
53339;SDS011;46212;50.258;19.062;2023-02-13T05:27:08;51.05;;;21.52;;
53339;SDS011;46212;50.258;19.062;2023-02-13T05:29:34;56.65;;;22.60;;
53339;SDS011;46212;50.258;19.062;2023-02-13T05:31:59;70.70;;;24.30;;
53339;SDS011;46212;50.258;19.062;2023-02-13T05:34:25;79.00;;;27.15;;
53339;SDS011;46212;50.258;19.062;2023-02-13T05:36:52;67.88;;;26.13;;
53339;SDS011;46212;50.258;19.062;2023-02-13T05:39:18;83.55;;;28.83;;
53339;SDS011;46212;50.258;19.062;2023-02-13T05:41:44;78.03;;;26.63;;
53339;SDS011;46212;50.258;19.062;2023-02-13T05:44:10;81.85;;;30.90;;
53339;SDS011;46212;50.258;19.062;2023-02-13T05:46:37;92.73;;;31.53;;
53339;SDS011;46212;50.258;19.062;2023-02-13T05:49:04;65.93;;;24.38;;
53339;SDS011;46212;50.258;19.062;2023-02-13T05:51:30;99.17;;;32.53;;
53339;SDS011;46212;50.258;19.062;2023-02-13T05:53:55;90.90;;;31.15;;
53339;SDS011;46212;50.258;19.062;2023-02-13T05:56:21;89.20;;;33.17;;
53339;SDS011;46212;50.258;19.062;2023-02-13T05:58:49;86.70;;;33.75;;
53339;SDS011;46212;50.258;19.062;2023-02-13T06:01:16;102.35;;;35.70;;
53339;SDS011;46212;50.258;19.062;2023-02-13T06:03:42;111.20;;;37.28;;
53339;SDS011;46212;50.258;19.062;2023-02-13T06:06:07;97.20;;;36.58;;
53339;SDS011;46212;50.258;19.062;2023-02-13T06:08:33;85.70;;;30.08;;
53339;SDS011;46212;50.258;19.062;2023-02-13T06:10:58;97.60;;;36.47;;
53339;SDS011;46212;50.258;19.062;2023-02-13T06:13:24;92.32;;;36.42;;
53339;SDS011;46212;50.258;19.062;2023-02-13T06:15:49;113.22;;;39.17;;
53339;SDS011;46212;50.258;19.062;2023-02-13T06:18:15;113.55;;;37.30;;
53339;SDS011;46212;50.258;19.062;2023-02-13T06:20:41;102.03;;;37.70;;
53339;SDS011;46212;50.258;19.062;2023-02-13T06:23:06;96.75;;;32.20;;
53339;SDS011;46212;50.258;19.062;2023-02-13T06:25:33;63.05;;;25.90;;
53339;SDS011;46212;50.258;19.062;2023-02-13T06:28:00;67.88;;;26.63;;
53339;SDS011;46212;50.258;19.062;2023-02-13T06:30:25;93.28;;;32.95;;
53339;SDS011;46212;50.258;19.062;2023-02-13T06:32:51;76.35;;;30.65;;
53339;SDS011;46212;50.258;19.062;2023-02-13T06:35:16;81.97;;;31.55;;
53339;SDS011;46212;50.258;19.062;2023-02-13T06:37:42;69.57;;;28.42;;
53339;SDS011;46212;50.258;19.062;2023-02-13T06:40:08;81.78;;;32.88;;
53339;SDS011;46212;50.258;19.062;2023-02-13T06:42:34;88.25;;;32.03;;
53339;SDS011;46212;50.258;19.062;2023-02-13T06:45:00;77.45;;;28.98;;
53339;SDS011;46212;50.258;19.062;2023-02-13T06:47:26;78.43;;;30.25;;
53339;SDS011;46212;50.258;19.062;2023-02-13T06:49:51;83.07;;;32.22;;
53339;SDS011;46212;50.258;19.062;2023-02-13T06:52:16;79.75;;;32.40;;
53339;SDS011;46212;50.258;19.062;2023-02-13T06:54:42;85.72;;;29.45;;
53339;SDS011;46212;50.258;19.062;2023-02-13T06:57:07;87.93;;;30.05;;
53339;SDS011;46212;50.258;19.062;2023-02-13T06:59:33;72.80;;;28.50;;
53339;SDS011;46212;50.258;19.062;2023-02-13T07:01:58;72.30;;;27.90;;
53339;SDS011;46212;50.258;19.062;2023-02-13T07:04:23;74.15;;;29.75;;
53339;SDS011;46212;50.258;19.062;2023-02-13T07:06:49;78.82;;;32.45;;
53339;SDS011;46212;50.258;19.062;2023-02-13T07:09:14;92.70;;;34.60;;
53339;SDS011;46212;50.258;19.062;2023-02-13T07:11:40;73.88;;;31.85;;
53339;SDS011;46212;50.258;19.062;2023-02-13T07:14:07;90.57;;;34.33;;
53339;SDS011;46212;50.258;19.062;2023-02-13T07:16:33;96.47;;;38.70;;
53339;SDS011;46212;50.258;19.062;2023-02-13T07:18:58;79.80;;;38.03;;
53339;SDS011;46212;50.258;19.062;2023-02-13T07:21:24;88.82;;;39.33;;
53339;SDS011;46212;50.258;19.062;2023-02-13T07:23:50;88.37;;;39.03;;
53339;SDS011;46212;50.258;19.062;2023-02-13T07:26:15;99.07;;;39.40;;
53339;SDS011;46212;50.258;19.062;2023-02-13T07:28:41;100.88;;;46.22;;
53339;SDS011;46212;50.258;19.062;2023-02-13T07:31:06;94.10;;;41.72;;
53339;SDS011;46212;50.258;19.062;2023-02-13T07:33:32;92.45;;;37.25;;
53339;SDS011;46212;50.258;19.062;2023-02-13T07:35:58;64.80;;;28.80;;
53339;SDS011;46212;50.258;19.062;2023-02-13T07:38:27;68.80;;;32.45;;
53339;SDS011;46212;50.258;19.062;2023-02-13T07:40:59;54.72;;;25.88;;
53339;SDS011;46212;50.258;19.062;2023-02-13T07:43:26;67.45;;;29.90;;
53339;SDS011;46212;50.258;19.062;2023-02-13T07:45:52;61.83;;;29.13;;
53339;SDS011;46212;50.258;19.062;2023-02-13T07:48:23;47.55;;;24.77;;
53339;SDS011;46212;50.258;19.062;2023-02-13T07:50:51;48.90;;;24.50;;
53339;SDS011;46212;50.258;19.062;2023-02-13T07:53:16;55.63;;;25.85;;
53339;SDS011;46212;50.258;19.062;2023-02-13T07:55:42;48.70;;;24.67;;
53339;SDS011;46212;50.258;19.062;2023-02-13T07:58:07;47.13;;;23.88;;
53339;SDS011;46212;50.258;19.062;2023-02-13T08:00:33;48.83;;;21.10;;
53339;SDS011;46212;50.258;19.062;2023-02-13T08:02:59;46.73;;;23.83;;
53339;SDS011;46212;50.258;19.062;2023-02-13T08:05:25;48.63;;;21.13;;
53339;SDS011;46212;50.258;19.062;2023-02-13T08:07:51;41.78;;;23.63;;
53339;SDS011;46212;50.258;19.062;2023-02-13T08:10:16;44.30;;;19.48;;
53339;SDS011;46212;50.258;19.062;2023-02-13T08:13:00;44.55;;;23.65;;
53339;SDS011;46212;50.258;19.062;2023-02-13T08:15:26;47.42;;;22.90;;
53339;SDS011;46212;50.258;19.062;2023-02-13T08:17:52;43.35;;;22.17;;
53339;SDS011;46212;50.258;19.062;2023-02-13T08:20:17;45.92;;;21.85;;
53339;SDS011;46212;50.258;19.062;2023-02-13T08:22:43;46.40;;;23.00;;
53339;SDS011;46212;50.258;19.062;2023-02-13T08:25:08;41.35;;;18.98;;
53339;SDS011;46212;50.258;19.062;2023-02-13T08:27:34;37.20;;;20.65;;
53339;SDS011;46212;50.258;19.062;2023-02-13T08:29:59;36.65;;;17.52;;
53339;SDS011;46212;50.258;19.062;2023-02-13T08:32:27;37.38;;;17.20;;
53339;SDS011;46212;50.258;19.062;2023-02-13T08:34:52;33.37;;;19.07;;
53339;SDS011;46212;50.258;19.062;2023-02-13T08:37:18;42.08;;;18.88;;
53339;SDS011;46212;50.258;19.062;2023-02-13T08:39:43;52.08;;;20.65;;
53339;SDS011;46212;50.258;19.062;2023-02-13T08:42:09;37.80;;;20.13;;
53339;SDS011;46212;50.258;19.062;2023-02-13T08:44:34;47.83;;;21.60;;
53339;SDS011;46212;50.258;19.062;2023-02-13T08:47:01;42.95;;;21.17;;
53339;SDS011;46212;50.258;19.062;2023-02-13T08:49:30;78.68;;;45.50;;
53339;SDS011;46212;50.258;19.062;2023-02-13T08:51:56;48.42;;;26.98;;
53339;SDS011;46212;50.258;19.062;2023-02-13T08:54:21;62.57;;;35.03;;
53339;SDS011;46212;50.258;19.062;2023-02-13T08:56:46;54.25;;;28.30;;
53339;SDS011;46212;50.258;19.062;2023-02-13T08:59:12;39.10;;;20.97;;
53339;SDS011;46212;50.258;19.062;2023-02-13T09:01:37;37.27;;;20.13;;
53339;SDS011;46212;50.258;19.062;2023-02-13T09:04:03;28.60;;;16.03;;
53339;SDS011;46212;50.258;19.062;2023-02-13T09:06:29;38.27;;;19.13;;
53339;SDS011;46212;50.258;19.062;2023-02-13T09:08:54;37.28;;;14.55;;
53339;SDS011;46212;50.258;19.062;2023-02-13T09:11:20;31.80;;;16.98;;
53339;SDS011;46212;50.258;19.062;2023-02-13T09:13:47;39.05;;;18.63;;
53339;SDS011;46212;50.258;19.062;2023-02-13T09:16:14;45.35;;;25.85;;
53339;SDS011;46212;50.258;19.062;2023-02-13T09:18:40;45.37;;;24.10;;
53339;SDS011;46212;50.258;19.062;2023-02-13T09:21:07;44.10;;;23.58;;
53339;SDS011;46212;50.258;19.062;2023-02-13T09:23:36;47.35;;;24.42;;
53339;SDS011;46212;50.258;19.062;2023-02-13T09:26:04;47.40;;;23.23;;
53339;SDS011;46212;50.258;19.062;2023-02-13T09:28:32;43.67;;;24.25;;
53339;SDS011;46212;50.258;19.062;2023-02-13T09:31:03;45.03;;;23.48;;
53339;SDS011;46212;50.258;19.062;2023-02-13T09:33:30;56.58;;;28.80;;
53339;SDS011;46212;50.258;19.062;2023-02-13T09:35:55;53.23;;;30.57;;
53339;SDS011;46212;50.258;19.062;2023-02-13T09:38:20;48.00;;;26.63;;
53339;SDS011;46212;50.258;19.062;2023-02-13T09:40:48;50.38;;;24.23;;
53339;SDS011;46212;50.258;19.062;2023-02-13T09:43:25;53.42;;;26.67;;
53339;SDS011;46212;50.258;19.062;2023-02-13T09:45:55;54.92;;;26.08;;
53339;SDS011;46212;50.258;19.062;2023-02-13T09:48:28;48.78;;;23.70;;
53339;SDS011;46212;50.258;19.062;2023-02-13T09:50:56;44.40;;;23.80;;
53339;SDS011;46212;50.258;19.062;2023-02-13T09:53:23;46.55;;;25.73;;
53339;SDS011;46212;50.258;19.062;2023-02-13T09:58:36;41.17;;;21.30;;
53339;SDS011;46212;50.258;19.062;2023-02-13T10:01:12;37.63;;;18.17;;
53339;SDS011;46212;50.258;19.062;2023-02-13T10:03:45;40.15;;;19.95;;
53339;SDS011;46212;50.258;19.062;2023-02-13T10:09:08;33.30;;;20.13;;
53339;SDS011;46212;50.258;19.062;2023-02-13T10:14:37;27.55;;;15.85;;
53339;SDS011;46212;50.258;19.062;2023-02-13T10:17:23;31.02;;;14.73;;
53339;SDS011;46212;50.258;19.062;2023-02-13T10:20:01;30.15;;;16.85;;
53339;SDS011;46212;50.258;19.062;2023-02-13T10:22:32;25.73;;;13.32;;
53339;SDS011;46212;50.258;19.062;2023-02-13T10:25:03;17.30;;;11.05;;
53339;SDS011;46212;50.258;19.062;2023-02-13T10:27:37;67.90;;;35.67;;
53339;SDS011;46212;50.258;19.062;2023-02-13T10:30:17;63.47;;;34.47;;
53339;SDS011;46212;50.258;19.062;2023-02-13T10:38:27;23.42;;;13.32;;
53339;SDS011;46212;50.258;19.062;2023-02-13T10:49:04;28.45;;;13.43;;
53339;SDS011;46212;50.258;19.062;2023-02-13T10:51:39;28.55;;;14.32;;
53339;SDS011;46212;50.258;19.062;2023-02-13T10:57:08;38.75;;;18.15;;
53339;SDS011;46212;50.258;19.062;2023-02-13T11:02:26;33.08;;;18.30;;
53339;SDS011;46212;50.258;19.062;2023-02-13T11:04:56;28.17;;;15.43;;
53339;SDS011;46212;50.258;19.062;2023-02-13T11:07:24;30.88;;;15.45;;
53339;SDS011;46212;50.258;19.062;2023-02-13T11:09:51;29.08;;;13.95;;
53339;SDS011;46212;50.258;19.062;2023-02-13T11:12:23;33.50;;;16.77;;
53339;SDS011;46212;50.258;19.062;2023-02-13T11:14:55;37.08;;;16.77;;
53339;SDS011;46212;50.258;19.062;2023-02-13T11:17:39;41.63;;;22.02;;
53339;SDS011;46212;50.258;19.062;2023-02-13T11:22:55;49.40;;;19.85;;
53339;SDS011;46212;50.258;19.062;2023-02-13T11:25:36;38.33;;;18.25;;
53339;SDS011;46212;50.258;19.062;2023-02-13T11:28:16;33.17;;;18.53;;
53339;SDS011;46212;50.258;19.062;2023-02-13T11:30:45;46.17;;;19.95;;
53339;SDS011;46212;50.258;19.062;2023-02-13T11:35:40;35.05;;;16.88;;
53339;SDS011;46212;50.258;19.062;2023-02-13T11:40:41;40.92;;;17.75;;
53339;SDS011;46212;50.258;19.062;2023-02-13T11:43:46;41.45;;;20.23;;
53339;SDS011;46212;50.258;19.062;2023-02-13T11:46:45;48.10;;;22.52;;
53339;SDS011;46212;50.258;19.062;2023-02-13T11:49:19;37.53;;;20.30;;
53339;SDS011;46212;50.258;19.062;2023-02-13T11:51:48;33.95;;;16.15;;
53339;SDS011;46212;50.258;19.062;2023-02-13T11:54:35;35.10;;;18.13;;
53339;SDS011;46212;50.258;19.062;2023-02-13T11:57:28;35.65;;;19.95;;
53339;SDS011;46212;50.258;19.062;2023-02-13T11:59:55;52.28;;;22.33;;
53339;SDS011;46212;50.258;19.062;2023-02-13T12:04:50;48.40;;;23.33;;
53339;SDS011;46212;50.258;19.062;2023-02-13T12:07:36;39.72;;;21.50;;
53339;SDS011;46212;50.258;19.062;2023-02-13T12:10:07;38.57;;;20.63;;
53339;SDS011;46212;50.258;19.062;2023-02-13T12:12:43;47.25;;;24.33;;
53339;SDS011;46212;50.258;19.062;2023-02-13T12:15:44;50.53;;;26.88;;
53339;SDS011;46212;50.258;19.062;2023-02-13T12:32:05;50.17;;;23.53;;
53339;SDS011;46212;50.258;19.062;2023-02-13T12:35:02;41.75;;;20.08;;
53339;SDS011;46212;50.258;19.062;2023-02-13T12:37:33;40.60;;;19.40;;
53339;SDS011;46212;50.258;19.062;2023-02-13T12:55:59;41.55;;;21.77;;
53339;SDS011;46212;50.258;19.062;2023-02-13T12:59:18;31.17;;;15.48;;
53339;SDS011;46212;50.258;19.062;2023-02-13T13:03:59;30.53;;;16.80;;
53339;SDS011;46212;50.258;19.062;2023-02-13T13:07:12;33.45;;;18.77;;
53339;SDS011;46212;50.258;19.062;2023-02-13T13:18:07;36.60;;;18.27;;
53339;SDS011;46212;50.258;19.062;2023-02-13T13:21:06;33.15;;;16.67;;
53339;SDS011;46212;50.258;19.062;2023-02-13T13:23:39;41.65;;;19.55;;
53339;SDS011;46212;50.258;19.062;2023-02-13T13:29:41;32.80;;;15.75;;
53339;SDS011;46212;50.258;19.062;2023-02-13T13:32:10;51.95;;;26.45;;
53339;SDS011;46212;50.258;19.062;2023-02-13T13:34:41;162.40;;;80.22;;
53339;SDS011;46212;50.258;19.062;2023-02-13T13:40:35;33.90;;;15.32;;
53339;SDS011;46212;50.258;19.062;2023-02-13T13:46:15;23.17;;;10.85;;
53339;SDS011;46212;50.258;19.062;2023-02-13T13:55:04;22.00;;;12.20;;
53339;SDS011;46212;50.258;19.062;2023-02-13T13:59:59;16.63;;;8.25;;
53339;SDS011;46212;50.258;19.062;2023-02-13T14:02:47;21.45;;;10.15;;
53339;SDS011;46212;50.258;19.062;2023-02-13T14:05:50;28.77;;;15.40;;
53339;SDS011;46212;50.258;19.062;2023-02-13T14:11:25;51.47;;;25.30;;
53339;SDS011;46212;50.258;19.062;2023-02-13T14:16:59;29.20;;;14.80;;
53339;SDS011;46212;50.258;19.062;2023-02-13T14:24:53;20.58;;;11.70;;
53339;SDS011;46212;50.258;19.062;2023-02-13T14:27:24;14.43;;;9.15;;
53339;SDS011;46212;50.258;19.062;2023-02-13T14:29:55;18.33;;;10.07;;
53339;SDS011;46212;50.258;19.062;2023-02-13T14:32:23;10.60;;;6.68;;
53339;SDS011;46212;50.258;19.062;2023-02-13T14:34:57;18.55;;;12.57;;
53339;SDS011;46212;50.258;19.062;2023-02-13T14:37:27;17.23;;;10.43;;
53339;SDS011;46212;50.258;19.062;2023-02-13T14:40:41;20.02;;;11.98;;
53339;SDS011;46212;50.258;19.062;2023-02-13T14:46:07;16.15;;;9.43;;
53339;SDS011;46212;50.258;19.062;2023-02-13T14:48:44;19.20;;;9.10;;
53339;SDS011;46212;50.258;19.062;2023-02-13T14:51:23;17.48;;;10.02;;
53339;SDS011;46212;50.258;19.062;2023-02-13T14:57:09;14.70;;;8.73;;
53339;SDS011;46212;50.258;19.062;2023-02-13T14:59:46;19.85;;;12.55;;
53339;SDS011;46212;50.258;19.062;2023-02-13T15:04:56;18.35;;;13.20;;
53339;SDS011;46212;50.258;19.062;2023-02-13T15:07:27;15.55;;;9.93;;
53339;SDS011;46212;50.258;19.062;2023-02-13T15:09:59;167.52;;;89.80;;
53339;SDS011;46212;50.258;19.062;2023-02-13T15:12:32;35.38;;;21.40;;
53339;SDS011;46212;50.258;19.062;2023-02-13T15:15:00;23.88;;;11.60;;
53339;SDS011;46212;50.258;19.062;2023-02-13T15:17:27;18.83;;;10.68;;
53339;SDS011;46212;50.258;19.062;2023-02-13T15:20:07;18.88;;;10.27;;
53339;SDS011;46212;50.258;19.062;2023-02-13T15:22:46;23.98;;;13.68;;
53339;SDS011;46212;50.258;19.062;2023-02-13T15:25:28;15.33;;;9.33;;
53339;SDS011;46212;50.258;19.062;2023-02-13T15:27:57;15.02;;;8.55;;
53339;SDS011;46212;50.258;19.062;2023-02-13T15:30:43;14.15;;;6.80;;
53339;SDS011;46212;50.258;19.062;2023-02-13T15:33:28;14.93;;;7.20;;
53339;SDS011;46212;50.258;19.062;2023-02-13T15:36:02;17.40;;;7.50;;
53339;SDS011;46212;50.258;19.062;2023-02-13T15:38:30;11.77;;;5.93;;
53339;SDS011;46212;50.258;19.062;2023-02-13T15:46:26;11.40;;;7.80;;
53339;SDS011;46212;50.258;19.062;2023-02-13T15:48:53;18.70;;;8.88;;
53339;SDS011;46212;50.258;19.062;2023-02-13T15:51:22;48.63;;;20.35;;
53339;SDS011;46212;50.258;19.062;2023-02-13T15:53:50;39.30;;;17.08;;
53339;SDS011;46212;50.258;19.062;2023-02-13T15:56:16;26.33;;;11.98;;
53339;SDS011;46212;50.258;19.062;2023-02-13T15:58:41;17.95;;;10.18;;
53339;SDS011;46212;50.258;19.062;2023-02-13T16:01:07;12.95;;;8.57;;
53339;SDS011;46212;50.258;19.062;2023-02-13T16:03:34;20.10;;;11.77;;
53339;SDS011;46212;50.258;19.062;2023-02-13T16:06:01;20.45;;;11.93;;
53339;SDS011;46212;50.258;19.062;2023-02-13T16:08:30;23.00;;;12.68;;
53339;SDS011;46212;50.258;19.062;2023-02-13T16:11:13;23.35;;;13.80;;
53339;SDS011;46212;50.258;19.062;2023-02-13T16:16:27;18.35;;;10.55;;
53339;SDS011;46212;50.258;19.062;2023-02-13T16:18:54;19.73;;;12.85;;
53339;SDS011;46212;50.258;19.062;2023-02-13T16:21:21;18.13;;;13.13;;
53339;SDS011;46212;50.258;19.062;2023-02-13T16:23:50;20.70;;;13.60;;
53339;SDS011;46212;50.258;19.062;2023-02-13T16:26:19;19.90;;;14.25;;
53339;SDS011;46212;50.258;19.062;2023-02-13T16:28:45;22.93;;;15.03;;
53339;SDS011;46212;50.258;19.062;2023-02-13T16:31:14;25.77;;;13.77;;
53339;SDS011;46212;50.258;19.062;2023-02-13T16:33:42;25.20;;;15.02;;
53339;SDS011;46212;50.258;19.062;2023-02-13T16:41:01;27.85;;;15.68;;
53339;SDS011;46212;50.258;19.062;2023-02-13T16:46:36;26.05;;;15.57;;
53339;SDS011;46212;50.258;19.062;2023-02-13T16:57:02;22.80;;;12.90;;
53339;SDS011;46212;50.258;19.062;2023-02-13T16:59:54;25.77;;;13.80;;
53339;SDS011;46212;50.258;19.062;2023-02-13T17:07:35;27.05;;;16.58;;
53339;SDS011;46212;50.258;19.062;2023-02-13T17:12:51;27.73;;;17.50;;
53339;SDS011;46212;50.258;19.062;2023-02-13T17:15:22;42.20;;;22.35;;
53339;SDS011;46212;50.258;19.062;2023-02-13T17:17:49;32.25;;;17.42;;
53339;SDS011;46212;50.258;19.062;2023-02-13T17:20:16;41.43;;;20.17;;
53339;SDS011;46212;50.258;19.062;2023-02-13T17:22:45;31.88;;;18.98;;
53339;SDS011;46212;50.258;19.062;2023-02-13T17:27:46;45.92;;;22.38;;
53339;SDS011;46212;50.258;19.062;2023-02-13T17:30:20;32.67;;;18.02;;
53339;SDS011;46212;50.258;19.062;2023-02-13T17:32:47;38.30;;;17.98;;
53339;SDS011;46212;50.258;19.062;2023-02-13T17:35:14;34.90;;;18.48;;